.
WxDataArchive / Data Records for 2010-11-16
2010-11-15 November 2010 2010-11-17

Data Records for Tuesday, 16 November 2010

Time	Temp	Chill	HIndex	Humid	Dewpt	 Wind 	HiWind	WindDir	Rain 	Barom 
-----	----	-----	------	-----	-----	------	------	-------	-----	----- 
00:00	31.8	31.8	31.8	89	28.9	0	0	---	0.00	29.935 
00:05	31.9	31.9	31.9	89	29.0	0	0	---	0.00	29.935 
00:10	31.9	31.9	31.9	89	29.0	0	0	---	0.00	29.935 
00:15	31.9	31.9	31.9	89	29.0	0	0	---	0.00	29.934 
00:20	31.8	31.8	31.8	89	28.9	0	0	---	0.00	29.934 
00:25	31.6	31.6	31.6	88	28.5	0	0	---	0.00	29.934 
00:30	31.3	31.3	31.3	88	28.2	0	0	---	0.00	29.928 
00:35	31.0	31.0	31.0	88	27.9	0	0	---	0.00	29.928 
00:40	30.9	30.9	30.9	88	27.8	0	0	---	0.00	29.928 
00:45	30.7	30.7	30.7	88	27.6	0	0	---	0.00	29.927 
00:50	30.6	30.6	30.6	88	27.5	0	0	---	0.00	29.927 
00:55	30.3	30.3	30.3	88	27.2	0	0	---	0.00	29.927 
01:00	30.0	30.0	30.0	88	26.9	0	0	---	0.00	29.928 
01:05	29.8	29.8	29.8	89	27.0	0	0	---	0.00	29.928 
01:10	29.7	29.7	29.7	89	26.9	0	0	---	0.00	29.928 
01:15	29.5	29.5	29.5	89	26.7	0	0	---	0.00	29.918 
01:20	29.4	29.4	29.4	89	26.6	0	0	---	0.00	29.918 
01:25	29.4	29.4	29.4	89	26.6	0	0	---	0.00	29.918 
01:30	29.4	29.4	29.4	89	26.6	0	0	---	0.00	29.914 
01:35	29.3	29.3	29.3	90	26.7	0	0	---	0.00	29.914 
01:40	29.1	29.1	29.1	90	26.5	0	0	---	0.00	29.914 
01:45	29.1	29.1	29.1	90	26.5	0	0	---	0.00	29.909 
01:50	29.0	29.0	29.0	90	26.4	0	0	---	0.00	29.909 
01:55	28.8	28.8	28.8	90	26.2	0	0	---	0.00	29.909 
02:00	28.8	28.8	28.8	90	26.2	0	0	---	0.00	29.908 
02:05	28.8	28.8	28.8	90	26.2	0	0	---	0.00	29.908 
02:10	28.7	28.7	28.7	90	26.1	0	0	---	0.00	29.908 
02:15	28.7	28.7	28.7	90	26.1	0	0	---	0.00	29.911 
02:20	28.5	28.5	28.5	90	25.9	0	0	---	0.00	29.911 
02:25	28.4	28.4	28.4	90	25.8	0	0	---	0.00	29.911 
02:30	28.2	28.2	28.2	90	25.7	0	0	---	0.00	29.912 
02:35	28.1	28.1	28.1	91	25.8	0	0	---	0.00	29.912 
02:40	27.9	27.9	27.9	91	25.6	0	0	---	0.00	29.912 
02:45	27.9	27.9	27.9	91	25.6	0	0	---	0.00	29.909 
02:50	27.8	27.8	27.8	91	25.5	0	0	---	0.00	29.909 
02:55	27.6	27.6	27.6	91	25.3	0	0	---	0.00	29.909 
03:00	27.5	27.5	27.5	91	25.2	0	0	---	0.00	29.913 
03:05	27.3	27.3	27.3	91	25.0	0	0	---	0.00	29.913 
03:10	27.2	27.2	27.2	91	24.9	0	0	---	0.00	29.913 
03:15	27.2	27.2	27.2	91	24.9	0	0	---	0.00	29.915 
03:20	27.3	27.3	27.3	91	25.0	0	0	---	0.00	29.915 
03:25	27.3	27.3	27.3	91	25.0	0	0	---	0.00	29.915 
03:30	27.3	27.3	27.3	91	25.0	0	0	---	0.00	29.905 
03:35	27.3	27.3	27.3	91	25.0	0	0	---	0.00	29.905 
03:40	27.3	27.3	27.3	91	25.0	0	0	---	0.00	29.905 
03:45	27.3	27.3	27.3	91	25.0	0	0	---	0.00	29.897 
03:50	27.3	27.3	27.3	92	25.3	0	0	---	0.00	29.897 
03:55	27.3	27.3	27.3	92	25.3	0	0	---	0.00	29.897 
04:00	27.3	27.3	27.3	92	25.3	0	0	---	0.00	29.896 
04:05	27.3	27.3	27.3	92	25.3	0	0	---	0.00	29.896 
04:10	27.3	27.3	27.3	92	25.3	0	0	---	0.00	29.896 
04:15	27.3	27.3	27.3	92	25.3	0	0	---	0.00	29.888 
04:20	27.3	27.3	27.3	92	25.3	0	0	---	0.00	29.888 
04:25	27.3	27.3	27.3	92	25.3	0	0	---	0.00	29.888 
04:30	27.3	27.3	27.3	92	25.3	0	0	---	0.00	29.875 
04:35	27.3	27.3	27.3	92	25.3	0	0	---	0.00	29.875 
04:40	27.3	27.3	27.3	92	25.3	0	0	---	0.00	29.875 
04:45	27.3	27.3	27.3	92	25.3	0	0	---	0.00	29.876 
04:50	27.2	27.2	27.2	92	25.2	0	0	---	0.00	29.876 
04:55	27.2	27.2	27.2	92	25.2	0	0	---	0.00	29.876 
05:00	27.0	27.0	27.0	92	25.0	0	0	---	0.00	29.881 
05:05	27.0	27.0	27.0	92	25.0	0	0	---	0.00	29.881 
05:10	26.9	26.9	26.9	92	24.9	0	0	---	0.00	29.881 
05:15	26.9	26.9	26.9	92	24.9	0	0	---	0.00	29.881 
05:20	26.9	26.9	26.9	92	24.9	0	0	---	0.00	29.881 
05:25	26.9	26.9	26.9	92	24.9	0	0	---	0.00	29.881 
05:30	26.7	26.7	26.7	92	24.7	0	0	---	0.00	29.883 
05:35	26.7	26.7	26.7	92	24.7	0	0	---	0.00	29.883 
05:40	26.6	26.6	26.6	92	24.6	0	0	---	0.00	29.883 
05:45	26.6	26.6	26.6	92	24.6	0	0	---	0.00	29.887 
05:50	26.6	26.6	26.6	92	24.6	0	0	---	0.00	29.887 
05:55	26.4	26.4	26.4	92	24.4	0	0	---	0.00	29.887 
06:00	26.3	26.3	26.3	92	24.3	0	0	---	0.00	29.889 
06:05	26.1	26.1	26.1	92	24.1	0	0	---	0.00	29.889 
06:10	26.0	26.0	26.0	92	24.0	0	0	---	0.00	29.889 
06:15	25.8	25.8	25.8	92	23.8	0	0	---	0.00	29.885 
06:20	25.8	25.8	25.8	92	23.8	0	0	---	0.00	29.885 
06:25	25.8	25.8	25.8	92	23.8	0	0	---	0.00	29.885 
06:30	25.8	25.8	25.8	92	23.8	0	0	---	0.00	29.880 
06:35	25.7	25.7	25.7	92	23.7	0	0	---	0.00	29.880 
06:40	25.7	25.7	25.7	92	23.7	0	0	---	0.00	29.880 
06:45	25.8	25.8	25.8	92	23.8	0	0	---	0.00	29.870 
06:50	26.1	26.1	26.1	93	24.4	0	0	---	0.00	29.870 
06:55	26.7	26.7	26.7	93	25.0	0	0	---	0.00	29.870 
07:00	27.2	27.2	27.2	93	25.4	0	0	---	0.00	29.862 
07:05	27.8	27.8	27.8	93	26.0	0	0	---	0.00	29.862 
07:10	28.2	28.2	28.2	94	26.7	0	1	90	0.00	29.862 
07:15	28.8	28.8	28.8	94	27.3	0	1	90	0.00	29.861 
07:20	29.1	29.1	29.1	93	27.3	0	1	90	0.00	29.861 
07:25	29.4	29.4	29.4	93	27.6	0	2	90	0.00	29.861 
07:30	29.5	29.5	29.5	93	27.7	0	2	90	0.00	29.856 
07:35	29.8	29.8	29.8	93	28.0	0	1	90	0.00	29.856 
07:40	30.1	30.1	30.1	93	28.3	0	1	90	0.00	29.856 
07:45	30.1	30.1	30.1	93	28.3	0	0	---	0.00	29.845 
07:50	30.3	30.3	30.3	92	28.3	0	1	90	0.00	29.845 
07:55	30.4	30.4	30.4	92	28.4	0	1	90	0.00	29.845 
08:00	30.6	30.6	30.6	92	28.6	0	1	90	0.00	29.842 
08:05	30.9	30.9	30.9	92	28.9	0	1	90	0.00	29.842 
08:10	31.0	31.0	31.0	92	29.0	0	1	90	0.00	29.842 
08:15	31.3	31.3	31.3	91	29.0	0	0	---	0.00	29.845 
08:20	31.5	31.5	31.5	91	29.2	0	4	90	0.00	29.845 
08:25	31.8	31.8	31.8	90	29.2	0	3	90	0.00	29.845 
08:30	32.2	32.2	32.2	89	29.3	0	3	90	0.00	29.839 
08:35	32.4	32.4	32.4	88	29.3	0	1	90	0.00	29.839 
08:40	32.5	32.5	32.5	88	29.3	0	2	90	0.00	29.839 
08:45	32.8	32.8	32.8	87	29.4	1	4	90	0.00	29.837 
08:50	33.1	33.1	33.1	87	29.7	1	4	90	0.00	29.837 
08:55	33.5	33.5	33.5	85	29.5	1	3	90	0.00	29.837 
09:00	33.7	33.7	33.7	85	29.7	0	2	90	0.00	29.827 
09:05	34.0	34.0	34.0	84	29.7	1	5	68	0.00	29.827 
09:10	34.4	34.4	34.4	84	30.1	0	2	68	0.00	29.827 
09:15	34.7	34.7	34.7	84	30.4	1	3	90	0.00	29.817 
09:20	35.0	35.0	35.0	83	30.4	1	4	90	0.00	29.817 
09:25	35.5	35.5	35.5	83	30.9	0	2	90	0.00	29.817 
09:30	35.8	35.8	35.8	82	30.9	1	5	90	0.00	29.812 
09:35	36.0	36.0	36.0	81	30.7	1	3	112	0.00	29.812 
09:40	36.3	36.3	36.3	82	31.3	1	5	90	0.00	29.812 
09:45	36.5	36.5	36.5	80	30.9	3	6	112	0.00	29.796 
09:50	36.8	36.8	36.8	81	31.5	2	5	112	0.00	29.796 
09:55	37.0	37.0	37.0	80	31.4	1	3	112	0.00	29.796 
10:00	37.3	37.3	37.3	80	31.7	2	6	90	0.00	29.793 
10:05	37.5	37.5	37.5	78	31.3	3	7	90	0.00	29.793 
10:10	37.6	37.6	37.6	79	31.7	2	9	90	0.00	29.793 
10:15	37.6	37.6	37.6	79	31.7	2	7	90	0.00	29.787 
10:20	37.8	37.8	37.8	78	31.6	2	7	90	0.00	29.787 
10:25	37.8	37.8	37.8	78	31.6	3	7	112	0.00	29.787 
10:30	37.9	37.9	37.9	78	31.7	2	7	90	0.00	29.782 
10:35	37.9	37.9	37.9	78	31.7	3	6	112	0.00	29.782 
10:40	38.0	38.0	38.0	79	32.1	3	7	112	0.00	29.782 
10:45	38.2	38.2	38.2	79	32.3	2	4	112	0.00	29.776 
10:50	38.3	38.3	38.3	78	32.1	3	7	90	0.00	29.776 
10:55	38.5	38.5	38.5	78	32.2	3	7	112	0.00	29.776 
11:00	38.8	38.8	38.8	78	32.5	3	7	90	0.00	29.768 
11:05	39.1	39.1	39.1	79	33.1	0	4	90	0.00	29.768 
11:10	39.3	39.3	39.3	78	33.0	1	4	90	0.00	29.768 
11:15	39.6	39.6	39.6	78	33.3	1	4	112	0.00	29.753 
11:20	39.9	39.9	39.9	77	33.3	3	7	112	0.00	29.753 
11:25	39.9	39.9	39.9	77	33.3	2	6	90	0.00	29.753 
11:30	40.2	40.2	40.2	77	33.6	1	3	90	0.00	29.749 
11:35	40.5	40.5	40.5	77	33.9	1	5	90	0.00	29.749 
11:40	40.6	40.6	40.6	77	34.0	2	6	112	0.00	29.749 
11:45	40.6	40.6	40.6	77	34.0	1	5	112	0.00	29.744 
11:50	40.9	40.9	40.9	76	33.9	1	6	112	0.00	29.744 
11:55	41.1	41.1	41.1	76	34.1	1	3	90	0.00	29.744 
12:00	41.2	41.2	41.2	76	34.2	1	3	112	0.00	29.729 
12:05	41.2	41.2	41.2	75	33.9	1	5	112	0.00	29.729 
12:10	41.3	41.3	41.3	75	34.0	2	6	112	0.00	29.729 
12:15	41.5	41.5	41.5	76	34.5	1	6	112	0.00	29.709 
12:20	41.6	41.6	41.6	75	34.3	1	6	90	0.00	29.709 
12:25	41.8	41.8	41.8	76	34.8	1	4	90	0.00	29.709 
12:30	42.1	42.1	42.1	75	34.8	1	4	112	0.00	29.685 
12:35	42.2	42.2	42.2	75	34.9	1	5	112	0.00	29.685 
12:40	42.3	42.3	42.3	75	35.0	1	6	90	0.00	29.685 
12:45	42.5	42.5	42.5	75	35.1	1	3	90	0.00	29.673 
12:50	42.8	42.8	42.8	75	35.4	1	5	90	0.00	29.673 
12:55	42.9	42.9	42.9	75	35.5	1	5	22	0.00	29.673 
13:00	43.1	43.1	43.1	75	35.7	1	5	90	0.00	29.660 
13:05	43.1	43.1	43.1	75	35.7	0	3	202	0.00	29.660 
13:10	43.2	43.2	43.2	75	35.8	1	4	112	0.00	29.660 
13:15	43.3	43.3	43.3	76	36.3	1	3	112	0.00	29.642 
13:20	43.3	43.3	43.3	76	36.3	1	4	45	0.00	29.642 
13:25	43.5	43.5	43.5	76	36.4	2	6	90	0.00	29.642 
13:30	43.8	43.8	43.8	77	37.1	1	7	135	0.00	29.627 
13:35	43.9	43.9	43.9	77	37.2	1	5	112	0.00	29.627 
13:40	44.2	44.2	44.2	77	37.5	0	2	135	0.00	29.627 
13:45	44.3	44.3	44.3	77	37.6	1	4	22	0.00	29.612 
13:50	44.5	44.5	44.5	77	37.7	1	4	112	0.00	29.612 
13:55	44.8	44.8	44.8	77	38.0	1	5	158	0.00	29.612 
14:00	44.9	44.9	44.9	77	38.1	1	4	68	0.00	29.599 
14:05	44.9	44.9	44.9	77	38.1	1	4	112	0.00	29.599 
14:10	45.1	45.1	45.1	78	38.7	1	3	45	0.00	29.599 
14:15	45.2	45.2	45.2	78	38.8	1	3	315	0.00	29.590 
14:20	45.4	45.4	45.4	79	39.3	2	8	112	0.00	29.590 
14:25	45.5	45.5	45.5	79	39.4	1	5	90	0.00	29.590 
14:30	45.7	45.7	45.7	79	39.6	1	6	45	0.00	29.584 
14:35	45.7	45.7	45.7	79	39.6	1	3	68	0.00	29.584 
14:40	45.8	45.8	45.8	79	39.7	1	4	0	0.00	29.584 
14:45	45.8	45.8	45.8	79	39.7	1	2	45	0.00	29.570 
14:50	46.0	46.0	46.0	80	40.2	0	2	112	0.00	29.570 
14:55	46.0	46.0	46.0	80	40.2	0	3	135	0.00	29.570 
15:00	46.0	46.0	46.0	80	40.2	1	4	112	0.00	29.570 
15:05	46.0	46.0	46.0	79	39.9	1	6	112	0.00	29.570 
15:10	46.1	46.1	46.1	79	40.0	1	4	158	0.00	29.570 
15:15	46.1	46.1	46.1	79	40.0	1	3	135	0.00	29.573 
15:20	46.1	46.1	46.1	78	39.6	1	8	135	0.00	29.573 
15:25	46.1	46.1	46.1	79	40.0	0	1	68	0.00	29.573 
15:30	46.1	46.1	46.1	78	39.6	0	3	68	0.00	29.572 
15:35	46.1	46.1	46.1	78	39.6	0	2	135	0.00	29.572 
15:40	46.1	46.1	46.1	78	39.6	0	1	135	0.00	29.572 
15:45	46.0	46.0	46.0	78	39.5	0	2	135	0.00	29.560 
15:50	46.0	46.0	46.0	78	39.5	0	2	68	0.00	29.560 
15:55	46.0	46.0	46.0	77	39.2	1	3	45	0.00	29.560 
16:00	46.0	46.0	46.0	77	39.2	0	1	45	0.00	29.557 
16:05	45.8	45.8	45.8	77	39.0	0	3	22	0.00	29.557 
16:10	45.8	45.8	45.8	77	39.0	1	3	0	0.00	29.557 
16:15	45.7	45.7	45.7	77	38.9	0	3	22	0.00	29.550 
16:20	45.7	45.7	45.7	78	39.2	0	3	315	0.00	29.550 
16:25	45.7	45.7	45.7	78	39.2	0	1	0	0.00	29.550 
16:30	45.5	45.5	45.5	79	39.4	0	2	0	0.00	29.545 
16:35	45.2	45.2	45.2	80	39.4	0	3	0	0.01	29.545 
16:40	45.1	45.1	45.1	81	39.6	0	2	0	0.00	29.545 
16:45	44.9	44.9	44.9	82	39.7	0	2	0	0.00	29.543 
16:50	44.6	44.6	44.6	83	39.8	0	2	0	0.00	29.543 
16:55	44.5	44.5	44.5	84	40.0	0	3	0	0.00	29.543 
17:00	44.5	44.5	44.5	84	40.0	0	0	---	0.00	29.541 
17:05	44.3	44.3	44.3	85	40.1	0	2	0	0.01	29.541 
17:10	44.2	44.2	44.2	85	40.0	0	6	135	0.00	29.541 
17:15	44.1	44.1	44.1	86	40.2	0	3	315	0.00	29.534 
17:20	44.1	44.1	44.1	87	40.5	0	2	0	0.00	29.534 
17:25	44.1	44.1	44.1	87	40.5	0	2	0	0.01	29.534 
17:30	43.9	43.9	43.9	88	40.6	0	2	0	0.00	29.521 
17:35	43.9	43.9	43.9	88	40.6	1	3	0	0.00	29.521 
17:40	43.9	43.9	43.9	88	40.6	0	5	0	0.01	29.521 
17:45	43.9	43.9	43.9	89	40.9	0	3	22	0.00	29.506 
17:50	43.8	43.8	43.8	89	40.8	1	4	22	0.00	29.506 
17:55	43.8	43.8	43.8	89	40.8	1	5	0	0.01	29.506 
18:00	43.8	43.8	43.8	90	41.1	1	6	0	0.00	29.494 
18:05	43.8	43.8	43.8	90	41.1	1	4	315	0.00	29.494 
18:10	43.8	43.8	43.8	90	41.1	1	4	0	0.00	29.494 
18:15	43.6	43.6	43.6	90	40.9	1	6	0	0.01	29.491 
18:20	43.6	43.6	43.6	90	40.9	1	3	338	0.00	29.491 
18:25	43.6	43.6	43.6	90	40.9	1	4	315	0.00	29.491 
18:30	43.6	43.6	43.6	90	40.9	0	3	0	0.01	29.494 
18:35	43.6	43.6	43.6	91	41.1	1	4	338	0.00	29.494 
18:40	43.6	43.6	43.6	91	41.1	1	3	338	0.00	29.494 
18:45	43.6	43.6	43.6	91	41.1	1	5	0	0.00	29.496 
18:50	43.6	43.6	43.6	91	41.1	1	2	248	0.01	29.496 
18:55	43.6	43.6	43.6	91	41.1	1	3	22	0.00	29.496 
19:00	43.6	43.6	43.6	91	41.1	1	3	0	0.01	29.495 
19:05	43.6	43.6	43.6	91	41.1	1	3	315	0.00	29.495 
19:10	43.6	43.6	43.6	91	41.1	1	4	315	0.01	29.495 
19:15	43.5	43.5	43.5	91	41.0	1	3	292	0.01	29.495 
19:20	43.5	43.5	43.5	92	41.3	1	4	315	0.01	29.495 
19:25	43.3	43.3	43.3	92	41.1	1	7	292	0.01	29.495 
19:30	43.3	43.3	43.3	92	41.1	1	4	0	0.01	29.493 
19:35	43.3	43.3	43.3	92	41.1	1	3	0	0.00	29.493 
19:40	43.2	43.2	43.2	92	41.0	1	4	0	0.01	29.493 
19:45	43.2	43.2	43.2	92	41.0	1	3	338	0.01	29.494 
19:50	43.2	43.2	43.2	92	41.0	1	4	338	0.01	29.494 
19:55	43.1	43.1	43.1	92	40.9	1	4	338	0.01	29.494 
20:00	43.1	43.1	43.1	92	40.9	1	4	338	0.00	29.493 
20:05	43.1	43.1	43.1	93	41.2	1	3	0	0.01	29.493 
20:10	42.9	42.9	42.9	93	41.0	1	4	0	0.01	29.493 
20:15	42.9	42.9	42.9	93	41.0	2	6	270	0.00	29.491 
20:20	42.9	42.9	42.9	93	41.0	2	5	292	0.01	29.491 
20:25	42.9	42.9	42.9	93	41.0	1	4	292	0.01	29.491 
20:30	42.9	42.9	42.9	93	41.0	2	5	270	0.01	29.492 
20:35	42.9	42.9	42.9	93	41.0	1	4	270	0.00	29.492 
20:40	42.9	42.9	42.9	93	41.0	1	4	338	0.01	29.492 
20:45	42.8	42.8	42.8	93	40.9	1	3	0	0.01	29.491 
20:50	42.8	42.8	42.8	93	40.9	1	4	315	0.02	29.491 
20:55	42.8	42.8	42.8	93	40.9	2	5	270	0.01	29.491 
21:00	42.8	42.8	42.8	93	40.9	2	4	292	0.01	29.493 
21:05	42.6	42.6	42.6	93	40.7	1	5	292	0.00	29.493 
21:10	42.6	42.6	42.6	93	40.7	1	4	0	0.01	29.493 
21:15	42.6	42.6	42.6	94	41.0	1	4	315	0.01	29.489 
21:20	42.6	42.6	42.6	94	41.0	1	5	315	0.01	29.489 
21:25	42.6	42.6	42.6	94	41.0	1	4	0	0.01	29.489 
21:30	42.6	42.6	42.6	94	41.0	1	4	315	0.01	29.492 
21:35	42.6	42.6	42.6	94	41.0	2	5	292	0.00	29.492 
21:40	42.6	42.6	42.6	94	41.0	1	4	315	0.01	29.492 
21:45	42.5	42.5	42.5	94	40.9	2	4	315	0.00	29.500 
21:50	42.5	42.5	42.5	94	40.9	2	10	292	0.00	29.500 
21:55	42.3	42.3	42.3	94	40.7	2	5	270	0.00	29.500 
22:00	42.3	42.3	42.3	94	40.7	2	4	270	0.00	29.508 
22:05	42.2	42.2	42.2	94	40.6	2	4	292	0.00	29.508 
22:10	42.2	42.2	42.2	94	40.6	1	4	270	0.00	29.508 
22:15	42.1	42.1	42.1	94	40.5	1	4	315	0.00	29.516 
22:20	41.9	41.9	41.9	93	40.0	1	3	270	0.00	29.516 
22:25	41.8	41.8	41.8	93	39.9	2	5	338	0.00	29.516 
22:30	41.6	41.6	41.6	93	39.7	2	5	292	0.00	29.521 
22:35	41.6	41.6	41.6	93	39.7	1	4	0	0.00	29.521 
22:40	41.6	41.6	41.6	93	39.7	2	4	292	0.01	29.521 
22:45	41.6	41.6	41.6	92	39.5	2	5	292	0.00	29.530 
22:50	41.6	41.6	41.6	92	39.5	2	4	292	0.00	29.530 
22:55	41.6	41.6	41.6	92	39.5	1	3	315	0.00	29.530 
23:00	41.6	41.6	41.6	91	39.2	1	4	315	0.00	29.538 
23:05	41.6	41.6	41.6	91	39.2	2	4	338	0.00	29.538 
23:10	41.6	41.6	41.6	91	39.2	2	7	292	0.01	29.538 
23:15	41.6	41.6	41.6	91	39.2	2	4	292	0.00	29.548 
23:20	41.8	41.8	41.8	91	39.4	3	5	270	0.00	29.548 
23:25	41.8	41.8	41.8	91	39.4	2	4	270	0.00	29.548 
23:30	41.8	41.8	41.8	91	39.4	2	5	338	0.00	29.564 
23:35	41.6	41.6	41.6	91	39.2	2	7	315	0.00	29.564 
23:40	41.6	41.6	41.6	91	39.2	3	6	292	0.00	29.564 
23:45	41.6	41.6	41.6	91	39.2	3	7	315	0.00	29.571 
23:50	41.6	41.6	41.6	91	39.2	2	4	315	0.01	29.571 
23:55	41.6	41.6	41.6	91	39.2	2	7	315	0.00	29.571 

CoCoRaHS
IN-AL-39
A2 Web Hosting
Creative Commons License
GoDaddy
search engine by freefind advanced

loaded 2018-11-20 09:36:40 • last modified 2010-11-18 10:43:29
Privacy PolicyDisclaimer
• wx.awcolley.com is powered by PmWiki v.2002016 •
• all content (unless otherwise noted) © 2018 A W Colley